»·PEaware :: N385J KLAS-KPRC

N385J :: KLAS-KPRC

FLIGHT INFORMATION

Flight Status: Arrived
Operator: Privately registered:
United States
More flights under this callsign
Pilot: Justin Z. (25672)
Aircraft: SOCATA TBM-900
(TBM9)
More flights by this aircraft type
Origin: KLAS McCarran Intl
United States
Destination: KPRC Love
United States
More flights between these airports :: More routes between these airports
Route: +BLD125050 IGM DRK
File this flight plan on PilotEdge
Remarks:
Altitude:
(Current/Filed)
27,000ft
Speed:
(Current/Filed)
250kts
Departed: 15-Mar-20 05:46 PM
Arrived: 15-Mar-20 06:36 PM
Distance/Time
Traveled:
159nm/0:50
Distance/Time
To Go:
Arrived

Flight Plot

Page will automatically refresh every two minutes.

Flight plan parsing failed; only flown route is shown


Map Options




Map Legend


Flown Route
Filed Route
Departure Airport
Arrival Airport
Navaid (VOR, NDB)
Fix

Horizontal Profiles

Position Reports

Time Latitude Longitude Heading Altitude Ground
Speed
15-Mar-20 17:13 36.080455 -115.170836 125 2169ft 0kts
15-Mar-20 17:14 36.080455 -115.170836 125 2169ft 0kts
15-Mar-20 17:15 36.080455 -115.170836 125 2169ft 0kts
15-Mar-20 17:16 36.080455 -115.170836 125 2169ft 0kts
15-Mar-20 17:17 36.080455 -115.170836 125 2169ft 0kts
15-Mar-20 17:18 36.080455 -115.170836 125 2169ft 0kts
15-Mar-20 17:19 36.080455 -115.170836 125 2169ft 0kts
15-Mar-20 17:20 36.080455 -115.170836 125 2169ft 0kts
15-Mar-20 17:21 36.080455 -115.170836 125 2169ft 0kts
15-Mar-20 17:22 36.080455 -115.170836 125 2169ft 0kts
15-Mar-20 17:23 36.080455 -115.170836 125 2169ft 0kts
15-Mar-20 17:24 36.080455 -115.170836 125 2169ft 0kts
15-Mar-20 17:24 36.080455 -115.170836 125 2169ft 0kts
15-Mar-20 17:26 36.080455 -115.170836 125 2169ft 0kts
15-Mar-20 17:27 36.080455 -115.170836 125 2169ft 0kts
15-Mar-20 17:27 36.080455 -115.170836 125 2169ft 0kts
15-Mar-20 17:28 36.080455 -115.170836 125 2169ft 0kts
15-Mar-20 17:30 36.080455 -115.170836 125 2169ft 0kts
15-Mar-20 17:30 36.080455 -115.170836 125 2169ft 0kts
15-Mar-20 17:31 36.080455 -115.170836 125 2169ft 0kts
15-Mar-20 17:32 36.080455 -115.170836 125 2169ft 0kts
15-Mar-20 17:33 36.080455 -115.170836 125 2169ft 0kts
15-Mar-20 17:34 36.080455 -115.170836 125 2169ft 0kts
15-Mar-20 17:35 36.080455 -115.170836 125 2169ft 0kts
15-Mar-20 17:36 36.080455 -115.170836 125 2169ft 0kts
15-Mar-20 17:37 36.080455 -115.170836 125 2169ft 0kts
15-Mar-20 17:38 36.080455 -115.170836 125 2169ft 0kts
15-Mar-20 17:39 36.080455 -115.170836 125 2169ft 0kts
15-Mar-20 17:40 36.080455 -115.170836 125 2169ft 0kts
15-Mar-20 17:41 36.080455 -115.170836 125 2169ft 0kts
15-Mar-20 17:42 36.080455 -115.170836 125 2169ft 0kts
15-Mar-20 17:43 36.080455 -115.170836 125 2169ft 0kts
15-Mar-20 17:44 36.082255 -115.168746 28 2161ft 29kts
15-Mar-20 17:45 36.091720 -115.162478 25 2117ft 47kts
15-Mar-20 17:46 36.099850 -115.157494 106 2085ft 0kts
15-Mar-20 17:47 36.099850 -115.157494 106 2085ft 0kts
15-Mar-20 17:48 36.098590 -115.157067 206 2084ft 22kts
15-Mar-20 17:49 36.072362 -115.172179 201 3049ft 146kts
15-Mar-20 17:50 36.029627 -115.194255 201 4464ft 177kts
15-Mar-20 17:51 35.983100 -115.217048 201 5973ft 178kts
15-Mar-20 17:52 35.943476 -115.205734 102 7433ft 203kts
15-Mar-20 17:53 35.938541 -115.136109 101 8935ft 204kts
15-Mar-20 17:54 35.934006 -115.065831 101 10410ft 205kts
15-Mar-20 17:55 35.929508 -114.996202 101 11875ft 201kts
15-Mar-20 17:56 35.924782 -114.926071 101 13364ft 207kts
15-Mar-20 17:57 35.920383 -114.854643 101 14838ft 208kts
15-Mar-20 17:58 35.911684 -114.776878 133 14996ft 238kts
15-Mar-20 17:59 35.861860 -114.721893 145 15027ft 249kts
15-Mar-20 18:00 35.807950 -114.665690 145 15022ft 254kts
15-Mar-20 18:01 35.753511 -114.609078 145 15021ft 256kts
15-Mar-20 18:02 35.699270 -114.552393 145 15021ft 256kts
15-Mar-20 18:03 35.643606 -114.493871 145 15246ft 257kts
15-Mar-20 18:04 35.592557 -114.440116 146 16691ft 228kts
15-Mar-20 18:05 35.546002 -114.391094 148 18149ft 214kts
15-Mar-20 18:06 35.501674 -114.344469 150 19629ft 204kts
15-Mar-20 18:07 35.459225 -114.300324 151 21074ft 196kts
15-Mar-20 18:08 35.417171 -114.256281 151 22578ft 208kts
15-Mar-20 18:09 35.368811 -114.205539 149 23136ft 258kts
15-Mar-20 18:10 35.310208 -114.143769 148 23116ft 289kts
15-Mar-20 18:11 35.267451 -114.060370 88 23129ft 336kts
15-Mar-20 18:12 35.261726 -113.948080 102 23109ft 334kts
15-Mar-20 18:13 35.227684 -113.846640 122 23110ft 323kts
15-Mar-20 18:14 35.189880 -113.746406 122 23109ft 323kts
15-Mar-20 18:15 35.152040 -113.646314 122 23109ft 323kts
15-Mar-20 18:16 35.113851 -113.545651 121 22831ft 331kts
15-Mar-20 18:17 35.074404 -113.441935 121 21376ft 339kts
15-Mar-20 18:18 35.034826 -113.338214 121 19487ft 333kts
15-Mar-20 18:19 34.996186 -113.236442 115 17437ft 330kts
15-Mar-20 18:20 34.986221 -113.132926 100 15348ft 286kts
15-Mar-20 18:21 34.978370 -113.039892 101 13293ft 267kts
15-Mar-20 18:23 34.957070 -112.946311 110 10879ft 233kts
15-Mar-20 18:23 34.941599 -112.883621 110 9192ft 229kts
15-Mar-20 18:24 34.923316 -112.811436 110 9000ft 222kts
15-Mar-20 18:25 34.904590 -112.738883 110 8999ft 224kts
15-Mar-20 18:26 34.873587 -112.675626 134 9003ft 220kts
15-Mar-20 18:27 34.851072 -112.604934 110 8916ft 229kts
15-Mar-20 18:28 34.831270 -112.529635 110 8641ft 234kts
15-Mar-20 18:29 34.806185 -112.456800 119 8145ft 229kts
15-Mar-20 18:30 34.773614 -112.397762 127 7176ft 195kts
15-Mar-20 18:31 34.733457 -112.357224 151 6395ft 183kts
15-Mar-20 18:32 34.703006 -112.367889 220 6090ft 82kts
15-Mar-20 18:33 34.685352 -112.386708 219 5633ft 94kts
15-Mar-20 18:34 34.665111 -112.408231 219 5074ft 92kts
15-Mar-20 18:35 34.654623 -112.419272 217 4990ft 29kts
15-Mar-20 18:36 34.651188 -112.420530 214 5008ft 14kts

Navigation Log

Ident Type
Flight plan parsing failed, navigation log unavailable